Skip Navigation LinksHome page > Tools > METAR decoder Skip Navigation Links

METAR decoder

Settings

METAR

Chicago O'Hare Intl, Chicago

For information only: do not use for flight planning or navigation.
Latest weather
Observation time Thursday, November 27, 2014 12:51 PM CST
Local time Thursday, November 27, 2014 1:18 PM CST
Flight conditions Marginal Visual Meteorological Conditions
Winds
Wind direction North-Northwest (330°)
Wind speed 16 mph
Visibility 10 mi.
Sky condition
Ceiling 2,200 ft. broken clouds
Cloud layer broken clouds 2,200 ft.
Temperature 24°F
Dewpoint 15°F
Altimeter 30.34 in.Hg
Derived measurements
Relative humidity 68%
Wind chill 11°F
Density altitude -2160 ft.
Sea-level pressure 30.37 in.Hg
Remarks
Automated weather observing station with precipitation discriminator.
METAR KORD 271851Z 33014KT 10SM BKN022 M04/M09 A3034 RMK AO2 SLP283 T10441094

InnerDrive.Weather 4.0.5399.0 Release CLR 4.0.30319.34014
Copyright ©2014 Inner Drive Technology. All rights reserved. Portions Copyright ©1986-2014 David Braverman.

Find weather

Site navigation


Skip Navigation Links

Place info

Page info

PayPal - The safer, easier way to pay online!

Return home.

Copyright ©2014 Inner Drive Technology. Purveyors of fine, hand-crafted computer software. Page printed 2014-11-27T19:18:50 UTC.